createdAt,value
2022-07-29T00:04:13.817Z,101456.69
2022-07-29T00:11:15.800Z,101461.03
2022-07-29T00:18:17.384Z,101462.38
2022-07-29T00:25:19.050Z,101460.53
2022-07-29T00:32:20.671Z,101454.91
2022-07-29T00:39:22.302Z,101452.56
2022-07-29T00:46:23.968Z,101451.94
2022-07-29T00:53:25.798Z,101451.63
2022-07-29T01:00:29.245Z,101441.94
2022-07-29T01:07:31.175Z,101439.50
2022-07-29T01:14:33.845Z,101432.41
2022-07-29T01:21:54.889Z,101425.69
2022-07-29T01:29:08.179Z,101423.09
2022-07-29T01:36:15.968Z,101405.72
2022-07-29T01:43:19.897Z,101385.63
2022-07-29T01:50:22.258Z,101358.97
2022-07-29T01:57:27.502Z,101350.13
2022-07-29T02:04:30.316Z,101349.75
2022-07-29T02:11:32.343Z,101342.41
2022-07-29T02:18:33.996Z,101348.84
2022-07-29T02:25:38.126Z,101354.78
2022-07-29T02:32:40.900Z,101368.47
2022-07-29T02:39:43.237Z,101363.88
2022-07-29T02:46:59.293Z,101371.31
2022-07-29T02:54:01.047Z,101365.84
2022-07-29T03:01:04.347Z,101358.91
2022-07-29T03:08:10.225Z,101367.03
2022-07-29T03:15:11.814Z,101366.03
2022-07-29T03:22:13.426Z,101366.78
2022-07-29T03:29:15.032Z,101354.41
2022-07-29T03:36:16.646Z,101350.78
2022-07-29T03:43:18.611Z,101348.44
2022-07-29T03:50:21.039Z,101337.28
2022-07-29T03:57:28.584Z,101330.63
2022-07-29T04:04:30.256Z,101338.38
2022-07-29T04:11:31.899Z,101339.28
2022-07-29T04:18:33.559Z,101350.06
2022-07-29T04:25:38.281Z,101358.75
2022-07-29T04:32:39.876Z,101363.94
2022-07-29T04:39:41.516Z,101359.78
2022-07-29T04:46:43.195Z,101345.91
2022-07-29T04:53:44.898Z,101354.38
2022-07-29T05:00:46.518Z,101362.09
2022-07-29T05:07:48.138Z,101354.41
2022-07-29T05:14:49.786Z,101355.44
2022-07-29T05:21:51.407Z,101351.22
2022-07-29T05:28:53.035Z,101351.88
2022-07-29T05:35:59.925Z,101350.41
2022-07-29T05:43:02.367Z,101341.72
2022-07-29T05:50:05.249Z,101334.03
2022-07-29T05:57:06.869Z,101349.56
2022-07-29T06:04:08.530Z,101341.00
2022-07-29T06:11:10.534Z,101352.31
2022-07-29T06:18:14.227Z,101356.13
2022-07-29T06:25:15.841Z,101332.75
2022-07-29T06:32:17.453Z,101336.22
2022-07-29T06:39:19.041Z,101333.00
2022-07-29T06:46:21.292Z,101339.53
2022-07-29T06:53:23.156Z,101335.00
2022-07-29T07:00:24.941Z,101342.13
2022-07-29T07:07:26.700Z,101348.13
2022-07-29T07:14:28.925Z,101353.41
2022-07-29T07:21:31.217Z,101347.72
2022-07-29T07:28:33.047Z,101344.63
2022-07-29T07:35:34.705Z,101333.28
2022-07-29T07:42:36.299Z,101347.75
2022-07-29T07:49:42.040Z,101334.63
2022-07-29T07:56:46.687Z,101336.00
2022-07-29T08:03:53.023Z,101329.09
2022-07-29T08:10:54.706Z,101319.97
2022-07-29T08:17:56.489Z,101311.78
2022-07-29T08:24:58.087Z,101316.41
2022-07-29T08:31:59.711Z,101318.38
2022-07-29T08:39:03.300Z,101310.94
2022-07-29T08:46:05.013Z,101304.28
2022-07-29T08:53:08.116Z,101302.03
2022-07-29T09:00:12.216Z,101293.38
2022-07-29T09:07:18.059Z,101293.38
2022-07-29T09:14:19.704Z,101296.88
2022-07-29T09:21:39.944Z,101298.50
2022-07-29T09:28:42.857Z,101291.66
2022-07-29T09:35:44.497Z,101291.97
2022-07-29T09:42:59.196Z,101282.50
2022-07-29T09:50:01.189Z,101284.19
2022-07-29T09:57:03.538Z,101280.97
2022-07-29T10:04:05.333Z,101281.84
2022-07-29T10:11:19.691Z,101269.16
2022-07-29T10:18:21.375Z,101266.84
2022-07-29T10:25:23.398Z,101251.72
2022-07-29T10:32:30.830Z,101255.63
2022-07-29T10:40:01.565Z,101245.41
2022-07-29T10:47:03.269Z,101248.09
2022-07-29T10:54:06.578Z,101236.78
2022-07-29T11:01:37.397Z,101249.66
2022-07-29T11:08:40.954Z,101239.16
2022-07-29T11:16:08.780Z,101238.16
2022-07-29T11:23:33.367Z,101226.78
2022-07-29T11:30:52.817Z,101228.78
2022-07-29T11:38:28.815Z,101232.00
2022-07-29T11:45:46.322Z,101221.28
2022-07-29T12:00:12.115Z,101198.84
2022-07-29T12:07:03.511Z,101206.63
2022-07-29T12:07:15.667Z,101192.63
2022-07-29T12:14:32.894Z,101186.97
2022-07-29T12:21:50.983Z,101179.47
2022-07-29T12:28:58.762Z,101176.94
2022-07-29T12:36:10.437Z,101170.13
2022-07-29T12:43:19.392Z,101160.44
2022-07-29T12:50:25.918Z,101159.97
2022-07-29T12:57:28.353Z,101165.38
2022-07-29T13:04:31.417Z,101157.72
2022-07-29T13:11:37.952Z,101147.06
2022-07-29T13:18:39.756Z,101137.91
2022-07-29T13:25:41.698Z,101135.38
2022-07-29T13:32:43.302Z,101129.97
2022-07-29T13:39:52.809Z,101119.72
2022-07-29T13:46:54.964Z,101123.53
2022-07-29T13:53:56.597Z,101113.53
2022-07-29T14:00:58.251Z,101113.72
2022-07-29T14:08:00.009Z,101105.34
2022-07-29T14:15:01.693Z,101105.78
2022-07-29T14:22:04.642Z,101094.09
2022-07-29T14:29:06.672Z,101088.91
2022-07-29T14:36:08.818Z,101080.44
2022-07-29T14:43:10.492Z,101080.31
2022-07-29T14:50:12.234Z,101072.69
2022-07-29T14:57:13.906Z,101069.78
2022-07-29T15:04:15.668Z,101075.81
2022-07-29T15:11:17.262Z,101073.72
2022-07-29T15:18:25.477Z,101073.44
2022-07-29T15:25:28.368Z,101067.72
2022-07-29T15:32:30.156Z,101069.66
2022-07-29T15:39:31.890Z,101061.31
2022-07-29T15:46:52.262Z,101067.78
2022-07-29T15:53:53.925Z,101059.81
2022-07-29T16:00:55.605Z,101045.25
2022-07-29T16:07:57.349Z,101052.06
2022-07-29T16:14:59.023Z,101044.88
2022-07-29T16:22:00.698Z,101034.81
2022-07-29T16:29:02.318Z,101026.56
2022-07-29T16:36:04.198Z,101021.38
2022-07-29T16:43:06.498Z,101015.59
2022-07-29T16:50:08.649Z,101002.31
2022-07-29T16:57:11.696Z,101008.91
2022-07-29T17:04:14.901Z,101004.31
2022-07-29T17:11:16.563Z,101008.94
2022-07-29T17:18:18.248Z,101015.13
2022-07-29T17:25:21.133Z,101013.09
2022-07-29T17:32:23.193Z,101008.09
2022-07-29T17:39:24.847Z,101014.38
2022-07-29T17:46:27.468Z,101012.25
2022-07-29T17:53:29.138Z,101022.19
2022-07-29T18:00:30.767Z,101031.03
2022-07-29T18:07:32.510Z,101029.13
2022-07-29T18:14:34.161Z,101029.81
2022-07-29T18:21:41.120Z,101035.94
2022-07-29T18:28:47.584Z,101041.28
2022-07-29T18:35:50.068Z,101051.41
2022-07-29T18:42:52.308Z,101052.84
2022-07-29T18:49:53.931Z,101047.72
2022-07-29T18:56:55.783Z,101060.97
2022-07-29T19:03:57.458Z,101056.53
2022-07-29T19:10:59.080Z,101064.81
2022-07-29T19:18:01.327Z,101067.47
2022-07-29T19:25:03.225Z,101089.38
2022-07-29T19:32:05.081Z,101089.47
2022-07-29T19:39:06.780Z,101094.06
2022-07-29T19:46:08.438Z,101090.66
2022-07-29T19:53:10.724Z,101092.44
2022-07-29T20:00:12.707Z,101095.25
2022-07-29T20:07:14.954Z,101089.59
2022-07-29T20:14:16.562Z,101086.34
2022-07-29T20:21:18.245Z,101095.69
2022-07-29T20:28:19.870Z,101089.16
2022-07-29T20:35:22.377Z,101094.69
2022-07-29T20:42:24.120Z,101106.44
2022-07-29T20:49:25.805Z,101118.28
2022-07-29T20:56:27.497Z,101113.78
2022-07-29T21:03:29.157Z,101117.75
2022-07-29T21:10:30.789Z,101109.47
2022-07-29T21:17:35.799Z,101112.19
2022-07-29T21:24:37.477Z,101116.78
2022-07-29T21:31:40.891Z,101126.72
2022-07-29T21:38:42.528Z,101130.84
2022-07-29T21:45:44.241Z,101128.06
2022-07-29T21:52:45.857Z,101128.91
2022-07-29T21:59:47.470Z,101113.94
2022-07-29T22:06:49.091Z,101111.81
2022-07-29T22:13:50.695Z,101116.41
2022-07-29T22:20:52.303Z,101114.66
2022-07-29T22:27:53.912Z,101114.75
2022-07-29T22:34:55.513Z,101106.97
2022-07-29T22:41:57.127Z,101114.63
2022-07-29T22:48:59.330Z,101107.53
2022-07-29T22:56:00.963Z,101093.03
2022-07-29T23:03:02.580Z,101086.91
2022-07-29T23:10:04.631Z,101081.69
2022-07-29T23:17:06.315Z,101078.16
2022-07-29T23:24:08.115Z,101078.44
2022-07-29T23:31:09.851Z,101071.66
2022-07-29T23:38:11.559Z,101080.19
2022-07-29T23:45:13.412Z,101076.38
2022-07-29T23:52:15.019Z,101076.91
2022-07-29T23:59:16.631Z,101078.25
